createdAt,value
2022-12-18T00:02:27.363Z,-8.30
2022-12-18T00:04:55.472Z,-8.30
2022-12-18T00:07:24.950Z,-8.30
2022-12-18T00:09:53.016Z,-8.30
2022-12-18T00:12:21.110Z,-8.40
2022-12-18T00:14:49.188Z,-8.30
2022-12-18T00:17:17.319Z,-8.30
2022-12-18T00:19:45.389Z,-8.40
2022-12-18T00:22:13.477Z,-8.30
2022-12-18T00:24:42.942Z,-8.30
2022-12-18T00:27:11.031Z,-8.30
2022-12-18T00:29:43.098Z,-8.30
2022-12-18T00:32:11.181Z,-8.40
2022-12-18T00:34:39.428Z,-8.30
2022-12-18T00:37:07.506Z,-8.30
2022-12-18T00:39:35.727Z,-8.20
2022-12-18T00:42:22.571Z,-8.10
2022-12-18T00:44:51.033Z,-8.10
2022-12-18T00:47:19.111Z,-8.10
2022-12-18T00:49:47.286Z,-8.10
2022-12-18T00:52:15.339Z,-8.20
2022-12-18T00:54:43.422Z,-8.20
2022-12-18T00:57:12.882Z,-8.20
2022-12-18T00:59:40.985Z,-8.30
2022-12-18T01:02:09.212Z,-8.30
2022-12-18T01:04:37.520Z,-8.40
2022-12-18T01:07:05.590Z,-8.40
2022-12-18T01:09:33.698Z,-8.30
2022-12-18T01:12:01.830Z,-8.40
2022-12-18T01:14:31.298Z,-8.30
2022-12-18T01:16:59.355Z,-8.30
2022-12-18T01:19:27.474Z,-8.30
2022-12-18T01:21:55.564Z,-8.30
2022-12-18T01:24:23.665Z,-8.30
2022-12-18T01:26:51.743Z,-8.30
2022-12-18T01:29:19.876Z,-8.30
2022-12-18T01:31:49.370Z,-8.30
2022-12-18T01:34:17.806Z,-8.30
2022-12-18T01:36:45.874Z,-8.40
2022-12-18T01:39:15.402Z,-8.40
2022-12-18T01:42:01.642Z,-8.50
2022-12-18T01:44:59.683Z,-8.40
2022-12-18T01:47:34.078Z,-8.40
2022-12-18T01:50:05.507Z,-8.40
2022-12-18T01:52:35.083Z,-8.40
2022-12-18T01:55:05.342Z,-8.40
2022-12-18T01:57:33.774Z,-8.40
2022-12-18T02:00:04.747Z,-8.30
2022-12-18T02:02:34.733Z,-8.30
2022-12-18T02:05:04.036Z,-8.20
2022-12-18T02:07:40.193Z,-8.20
2022-12-18T02:10:14.009Z,-8.20
2022-12-18T02:12:46.875Z,-8.20
2022-12-18T02:15:19.610Z,-8.20
2022-12-18T02:17:55.642Z,-8.20
2022-12-18T02:20:30.139Z,-8.20
2022-12-18T02:23:13.592Z,-8.30
2022-12-18T02:26:13.096Z,-8.30
2022-12-18T02:28:46.680Z,-8.30
2022-12-18T02:31:19.655Z,-8.40
2022-12-18T02:33:48.946Z,-8.50
2022-12-18T02:36:19.752Z,-8.50
2022-12-18T02:38:48.794Z,-8.50
2022-12-18T02:41:18.193Z,-8.50
2022-12-18T02:43:50.195Z,-8.50
2022-12-18T02:46:30.927Z,-8.50
2022-12-18T02:49:08.508Z,-8.50
2022-12-18T02:51:46.537Z,-8.50
2022-12-18T02:54:27.022Z,-8.50
2022-12-18T02:56:58.609Z,-8.40
2022-12-18T02:59:35.996Z,-8.40
2022-12-18T03:02:21.014Z,-8.50
2022-12-18T03:04:55.086Z,-8.50
2022-12-18T03:07:39.055Z,-8.40
2022-12-18T03:10:10.949Z,-8.40
2022-12-18T03:12:44.615Z,-8.40
2022-12-18T03:15:19.085Z,-8.40
2022-12-18T03:17:52.748Z,-8.50
2022-12-18T03:20:23.470Z,-8.50
2022-12-18T03:22:57.649Z,-8.50
2022-12-18T03:25:28.918Z,-8.50
2022-12-18T03:28:00.822Z,-8.50
2022-12-18T03:30:33.296Z,-8.60
2022-12-18T03:33:07.707Z,-8.60
2022-12-18T03:35:39.510Z,-8.60
2022-12-18T03:38:07.763Z,-8.60
2022-12-18T03:40:42.767Z,-8.60
2022-12-18T03:43:15.788Z,-8.60
2022-12-18T03:45:53.383Z,-8.70
2022-12-18T03:48:30.234Z,-8.80
2022-12-18T03:51:01.217Z,-8.70
2022-12-18T03:53:39.429Z,-8.70
2022-12-18T03:56:09.534Z,-8.60
2022-12-18T03:58:40.797Z,-8.60
2022-12-18T04:01:15.801Z,-8.50
2022-12-18T04:03:46.088Z,-8.50
2022-12-18T04:06:15.344Z,-8.50
2022-12-18T04:08:44.185Z,-8.50
2022-12-18T04:11:12.355Z,-8.50
2022-12-18T04:13:41.463Z,-8.60
2022-12-18T04:16:11.500Z,-8.60
2022-12-18T04:18:39.674Z,-8.70
2022-12-18T04:21:07.794Z,-8.70
2022-12-18T04:23:36.063Z,-8.70
2022-12-18T04:26:04.222Z,-8.70
2022-12-18T04:28:32.315Z,-8.70
2022-12-18T04:31:00.428Z,-8.80
2022-12-18T04:33:30.006Z,-8.80
2022-12-18T04:35:58.114Z,-8.80
2022-12-18T04:38:26.262Z,-8.90
2022-12-18T04:40:54.335Z,-8.80
2022-12-18T04:43:22.579Z,-8.80
2022-12-18T04:45:50.723Z,-8.70
2022-12-18T04:48:18.831Z,-8.70
2022-12-18T04:50:49.273Z,-8.70
2022-12-18T04:53:17.528Z,-8.70
2022-12-18T04:55:45.621Z,-8.70
2022-12-18T04:58:13.813Z,-8.70
2022-12-18T05:00:41.887Z,-8.70
2022-12-18T05:03:10.027Z,-8.70
2022-12-18T05:05:38.150Z,-8.60
2022-12-18T05:08:07.774Z,-8.60
2022-12-18T05:10:38.366Z,-8.60
2022-12-18T05:13:06.706Z,-8.60
2022-12-18T05:15:35.754Z,-8.60
2022-12-18T05:18:05.280Z,-8.60
2022-12-18T05:20:33.776Z,-8.70
2022-12-18T05:23:01.862Z,-8.70
2022-12-18T05:25:31.304Z,-8.60
2022-12-18T05:27:59.453Z,-8.70
2022-12-18T05:30:28.569Z,-8.70
2022-12-18T05:32:56.825Z,-8.70
2022-12-18T05:35:24.966Z,-8.70
2022-12-18T05:37:53.078Z,-8.70
2022-12-18T05:40:21.125Z,-8.80
2022-12-18T05:42:50.604Z,-8.70
2022-12-18T05:45:18.783Z,-8.70
2022-12-18T05:47:46.879Z,-8.70
2022-12-18T05:50:14.947Z,-8.70
2022-12-18T05:52:43.032Z,-8.80
2022-12-18T05:55:11.179Z,-8.70
2022-12-18T05:57:39.272Z,-8.70
2022-12-18T06:00:10.730Z,-8.70
2022-12-18T06:02:38.943Z,-8.70
2022-12-18T06:05:07.868Z,-8.70
2022-12-18T06:07:35.967Z,-8.80
2022-12-18T06:10:04.444Z,-8.80
2022-12-18T06:12:34.468Z,-8.80
2022-12-18T06:15:02.924Z,-8.80
2022-12-18T06:17:33.077Z,-8.80
2022-12-18T06:20:02.205Z,-8.80
2022-12-18T06:22:30.312Z,-8.90
2022-12-18T06:24:58.597Z,-8.90
2022-12-18T06:27:26.930Z,-8.90
2022-12-18T06:29:55.033Z,-8.90
2022-12-18T06:32:23.197Z,-8.90
2022-12-18T06:34:52.689Z,-8.90
2022-12-18T06:37:20.966Z,-8.90
2022-12-18T06:39:49.069Z,-9.00
2022-12-18T06:42:17.096Z,-9.00
2022-12-18T06:44:45.223Z,-9.00
2022-12-18T06:47:13.353Z,-9.00
2022-12-18T06:49:41.463Z,-9.00
2022-12-18T06:52:10.975Z,-8.90
2022-12-18T06:54:39.271Z,-9.00
2022-12-18T06:57:07.340Z,-9.00
2022-12-18T06:59:35.555Z,-9.00
2022-12-18T07:02:03.745Z,-8.90
2022-12-18T07:04:32.604Z,-8.90
2022-12-18T07:07:00.687Z,-8.90
2022-12-18T07:09:30.150Z,-8.90
2022-12-18T07:11:58.185Z,-9.00
2022-12-18T07:14:27.419Z,-9.00
2022-12-18T07:16:55.565Z,-9.00
2022-12-18T07:19:23.722Z,-8.90
2022-12-18T07:21:52.599Z,-9.00
2022-12-18T07:24:20.716Z,-9.00
2022-12-18T07:26:50.462Z,-9.00
2022-12-18T07:29:18.563Z,-9.00
2022-12-18T07:31:46.955Z,-8.90
2022-12-18T07:34:16.346Z,-8.90
2022-12-18T07:36:44.549Z,-8.90
2022-12-18T07:39:13.481Z,-8.90
2022-12-18T07:41:46.676Z,-8.90
2022-12-18T07:44:16.710Z,-8.80
2022-12-18T07:46:44.765Z,-8.80
2022-12-18T07:49:12.838Z,-8.80
2022-12-18T07:51:41.221Z,-8.70
2022-12-18T07:54:09.314Z,-8.70
2022-12-18T07:56:37.379Z,-8.60
2022-12-18T07:59:05.473Z,-8.60
2022-12-18T08:01:35.823Z,-8.60
2022-12-18T08:04:03.987Z,-8.50
2022-12-18T08:06:32.068Z,-8.40
2022-12-18T08:09:00.232Z,-8.30
2022-12-18T08:11:29.748Z,-8.30
2022-12-18T08:13:58.445Z,-8.30
2022-12-18T08:16:27.066Z,-8.20
2022-12-18T08:18:57.073Z,-8.20
2022-12-18T08:21:27.710Z,-8.10
2022-12-18T08:23:57.531Z,-8.10
2022-12-18T08:26:27.287Z,-8.10
2022-12-18T08:28:56.216Z,-8.20
2022-12-18T08:31:24.613Z,-8.20
2022-12-18T08:33:53.754Z,-8.10
2022-12-18T08:36:24.855Z,-8.10
2022-12-18T08:38:53.794Z,-8.00
2022-12-18T08:41:22.628Z,-8.00
2022-12-18T08:44:08.778Z,-8.00
2022-12-18T08:46:38.822Z,-7.90
2022-12-18T08:49:08.315Z,-7.80
2022-12-18T08:51:38.019Z,-7.80
2022-12-18T08:54:07.266Z,-7.70
2022-12-18T08:56:35.655Z,-7.60
2022-12-18T08:59:05.441Z,-7.50
2022-12-18T09:01:33.760Z,-7.40
2022-12-18T09:04:03.823Z,-7.30
2022-12-18T09:06:32.941Z,-7.20
2022-12-18T09:09:03.060Z,-7.20
2022-12-18T09:11:32.637Z,-7.10
2022-12-18T09:14:02.126Z,-7.00
2022-12-18T09:16:32.593Z,-7.00
2022-12-18T09:19:01.887Z,-6.80
2022-12-18T09:21:32.318Z,-6.80
2022-12-18T09:24:05.273Z,-6.70
2022-12-18T09:26:37.755Z,-6.70
2022-12-18T09:29:08.259Z,-6.60
2022-12-18T09:31:36.647Z,-6.50
2022-12-18T09:34:04.810Z,-6.40
2022-12-18T09:36:32.877Z,-6.30
2022-12-18T09:39:06.330Z,-6.30
2022-12-18T09:41:48.303Z,-6.20
2022-12-18T09:44:22.273Z,-6.10
2022-12-18T09:46:56.734Z,-6.00
2022-12-18T09:49:28.454Z,-6.00
2022-12-18T09:51:59.879Z,-5.80
2022-12-18T09:54:34.899Z,-5.70
2022-12-18T09:57:04.480Z,-5.60
2022-12-18T09:59:36.428Z,-5.50
2022-12-18T10:02:18.964Z,-5.50
2022-12-18T10:04:56.428Z,-5.40
2022-12-18T10:07:32.104Z,-5.40
2022-12-18T10:10:07.224Z,-5.30
2022-12-18T10:12:44.698Z,-5.30
2022-12-18T10:15:18.670Z,-5.20
2022-12-18T10:17:53.644Z,-5.20
2022-12-18T10:20:29.475Z,-5.20
2022-12-18T10:23:03.593Z,-5.10
2022-12-18T10:25:36.864Z,-5.00
2022-12-18T10:28:17.547Z,-5.00
2022-12-18T10:30:46.069Z,-4.90
2022-12-18T10:33:15.827Z,-4.80
2022-12-18T10:35:44.682Z,-4.80
2022-12-18T10:38:25.372Z,-4.70
2022-12-18T10:40:55.456Z,-4.70
2022-12-18T10:43:27.162Z,-4.60
2022-12-18T10:46:15.549Z,-4.60
2022-12-18T10:48:55.031Z,-4.50
2022-12-18T10:51:25.934Z,-4.40
2022-12-18T10:53:57.810Z,-4.30
2022-12-18T10:56:28.423Z,-4.30
2022-12-18T10:59:02.811Z,-4.20
2022-12-18T11:01:49.271Z,-4.10
2022-12-18T11:04:20.642Z,-4.00
2022-12-18T11:06:57.974Z,-3.90
2022-12-18T11:09:28.643Z,-3.80
2022-12-18T11:12:00.195Z,-3.70
2022-12-18T11:14:31.514Z,-3.70
2022-12-18T11:19:55.789Z,-3.60
2022-12-18T11:22:28.743Z,-3.50
2022-12-18T11:27:54.713Z,-3.40
2022-12-18T11:30:29.560Z,-3.30
2022-12-18T11:33:06.126Z,-3.30
2022-12-18T11:35:46.536Z,-3.30
2022-12-18T11:38:23.860Z,-3.20
2022-12-18T11:40:57.289Z,-3.20
2022-12-18T11:43:30.787Z,-3.20
2022-12-18T11:46:04.795Z,-3.10
2022-12-18T11:48:39.320Z,-3.10
2022-12-18T11:51:14.219Z,-3.10
2022-12-18T11:53:42.426Z,-3.10
2022-12-18T11:56:32.946Z,-3.10
2022-12-18T11:59:09.519Z,-3.00
2022-12-18T12:01:50.931Z,-3.00
2022-12-18T12:05:01.034Z,-3.00
2022-12-18T12:07:40.454Z,-3.00
2022-12-18T12:10:23.069Z,-3.00
2022-12-18T12:13:06.759Z,-2.90
2022-12-18T12:15:45.241Z,-2.90
2022-12-18T12:18:26.414Z,-2.90
2022-12-18T12:21:02.737Z,-2.80
2022-12-18T12:23:39.185Z,-2.80
2022-12-18T12:26:10.915Z,-2.80
2022-12-18T12:29:03.866Z,-2.80
2022-12-18T12:31:45.107Z,-2.80
2022-12-18T12:34:20.152Z,-2.80
2022-12-18T12:37:03.993Z,-2.80
2022-12-18T12:39:36.652Z,-2.80
2022-12-18T12:42:25.619Z,-2.70
2022-12-18T12:44:57.737Z,-2.70
2022-12-18T12:47:32.837Z,-2.60
2022-12-18T12:50:06.313Z,-2.60
2022-12-18T12:52:41.990Z,-2.50
2022-12-18T12:55:28.823Z,-2.50
2022-12-18T12:58:07.803Z,-2.40
2022-12-18T13:00:43.218Z,-2.30
2022-12-18T13:03:17.645Z,-2.40
2022-12-18T13:05:52.938Z,-2.40
2022-12-18T13:08:31.687Z,-2.40
2022-12-18T13:11:20.501Z,-2.40
2022-12-18T13:13:54.085Z,-2.40
2022-12-18T13:16:24.411Z,-2.50
2022-12-18T13:18:53.544Z,-2.40
2022-12-18T13:21:29.330Z,-2.40
2022-12-18T13:23:58.913Z,-2.40
2022-12-18T13:26:36.462Z,-2.50
2022-12-18T13:29:07.141Z,-2.50
2022-12-18T13:32:03.031Z,-2.50
2022-12-18T13:34:33.321Z,-2.50
2022-12-18T13:37:35.575Z,-2.50
2022-12-18T13:40:56.296Z,-2.50
2022-12-18T13:43:34.623Z,-2.50
2022-12-18T13:46:30.917Z,-2.60
2022-12-18T13:49:03.926Z,-2.60
2022-12-18T13:51:34.709Z,-2.70
2022-12-18T13:54:07.502Z,-2.70
2022-12-18T13:56:46.073Z,-2.70
2022-12-18T13:59:23.221Z,-2.70
2022-12-18T14:01:56.000Z,-2.70
2022-12-18T14:04:28.015Z,-2.70
2022-12-18T14:07:01.021Z,-2.70
2022-12-18T14:09:32.604Z,-2.70
2022-12-18T14:12:20.076Z,-2.70
2022-12-18T14:14:54.941Z,-2.70
2022-12-18T14:17:24.775Z,-2.80
2022-12-18T14:19:53.510Z,-2.80
2022-12-18T14:22:28.619Z,-2.80
2022-12-18T14:25:16.131Z,-2.80
2022-12-18T14:27:47.560Z,-2.80
2022-12-18T14:30:27.625Z,-2.80
2022-12-18T14:33:06.558Z,-2.90
2022-12-18T14:35:35.300Z,-2.90
2022-12-18T14:38:24.042Z,-2.90
2022-12-18T14:40:55.983Z,-3.00
2022-12-18T14:43:25.555Z,-3.10
2022-12-18T14:45:54.272Z,-3.10
2022-12-18T14:48:25.247Z,-3.10
2022-12-18T14:51:02.225Z,-3.10
2022-12-18T14:53:37.764Z,-3.10
2022-12-18T14:56:15.632Z,-3.10
2022-12-18T14:58:52.727Z,-3.20
2022-12-18T15:01:26.250Z,-3.20
2022-12-18T15:03:55.132Z,-3.30
2022-12-18T15:06:31.198Z,-3.30
2022-12-18T15:09:00.383Z,-3.30
2022-12-18T15:11:34.122Z,-3.30
2022-12-18T15:14:24.210Z,-3.30
2022-12-18T15:16:55.116Z,-3.40
2022-12-18T15:19:24.590Z,-3.30
2022-12-18T15:21:52.729Z,-3.30
2022-12-18T15:24:26.447Z,-3.30
2022-12-18T15:26:54.750Z,-3.30
2022-12-18T15:29:26.228Z,-3.40
2022-12-18T15:32:02.707Z,-3.40
2022-12-18T15:34:31.727Z,-3.40
2022-12-18T15:36:59.834Z,-3.40
2022-12-18T15:39:27.918Z,-3.40
2022-12-18T15:42:13.614Z,-3.40
2022-12-18T15:44:43.103Z,-3.40
2022-12-18T15:47:14.376Z,-3.40
2022-12-18T15:49:42.489Z,-3.40
2022-12-18T15:52:14.109Z,-3.50
2022-12-18T15:54:59.718Z,-3.60
2022-12-18T15:57:27.855Z,-3.60
2022-12-18T15:59:59.177Z,-3.60
2022-12-18T16:02:29.068Z,-3.70
2022-12-18T16:04:57.345Z,-3.60
2022-12-18T16:07:28.119Z,-3.60
2022-12-18T16:09:58.923Z,-3.60
2022-12-18T16:12:29.034Z,-3.60
2022-12-18T16:14:58.468Z,-3.50
2022-12-18T16:17:26.591Z,-3.50
2022-12-18T16:19:55.001Z,-3.50
2022-12-18T16:22:24.652Z,-3.60
2022-12-18T16:24:54.146Z,-3.60
2022-12-18T16:27:23.789Z,-3.60
2022-12-18T16:29:52.287Z,-3.50
2022-12-18T16:32:23.536Z,-3.50
2022-12-18T16:34:52.615Z,-3.50
2022-12-18T16:37:20.778Z,-3.40
2022-12-18T16:39:48.852Z,-3.50
2022-12-18T16:42:20.290Z,-3.60
2022-12-18T16:44:50.042Z,-3.50
2022-12-18T16:47:19.110Z,-3.60
2022-12-18T16:49:51.718Z,-3.60
2022-12-18T16:52:20.178Z,-3.60
2022-12-18T16:54:48.424Z,-3.60
2022-12-18T16:57:18.805Z,-3.60
2022-12-18T16:59:47.495Z,-3.70
2022-12-18T17:02:18.371Z,-3.70
2022-12-18T17:04:54.279Z,-3.70
2022-12-18T17:07:22.438Z,-3.70
2022-12-18T17:09:51.279Z,-3.60
2022-12-18T17:12:19.478Z,-3.60
2022-12-18T17:14:47.727Z,-3.60
2022-12-18T17:17:23.785Z,-3.60
2022-12-18T17:19:53.805Z,-3.60
2022-12-18T17:22:23.096Z,-3.50
2022-12-18T17:24:51.240Z,-3.50
2022-12-18T17:27:19.365Z,-3.50
2022-12-18T17:29:48.807Z,-3.50
2022-12-18T17:32:17.596Z,-3.60
2022-12-18T17:34:46.019Z,-3.50
2022-12-18T17:37:15.790Z,-3.50
2022-12-18T17:39:43.886Z,-3.50
2022-12-18T17:42:14.938Z,-3.50
2022-12-18T17:44:43.901Z,-3.60
2022-12-18T17:47:13.131Z,-3.50
2022-12-18T17:49:41.559Z,-3.60
2022-12-18T17:52:09.799Z,-3.60
2022-12-18T17:54:41.954Z,-3.60
2022-12-18T17:57:10.350Z,-3.60
2022-12-18T17:59:38.464Z,-3.60
2022-12-18T18:02:06.730Z,-3.60
2022-12-18T18:04:34.931Z,-3.60
2022-12-18T18:07:03.091Z,-3.60
2022-12-18T18:09:31.251Z,-3.60
2022-12-18T18:12:18.180Z,-3.50
2022-12-18T18:14:46.335Z,-3.50
2022-12-18T18:17:14.738Z,-3.50
2022-12-18T18:19:43.286Z,-3.50
2022-12-18T18:22:13.982Z,-3.50
2022-12-18T18:24:43.721Z,-3.50
2022-12-18T18:27:13.159Z,-3.50
2022-12-18T18:29:41.658Z,-3.50
2022-12-18T18:32:09.815Z,-3.50
2022-12-18T18:34:38.164Z,-3.50
2022-12-18T18:37:06.824Z,-3.40
2022-12-18T18:39:34.981Z,-3.40
2022-12-18T18:42:03.365Z,-3.30
2022-12-18T18:44:33.130Z,-3.30
2022-12-18T18:47:01.703Z,-3.30
2022-12-18T18:49:31.983Z,-3.30
2022-12-18T18:52:00.305Z,-3.30
2022-12-18T18:54:28.417Z,-3.30
2022-12-18T18:57:19.315Z,-3.30
2022-12-18T18:59:47.257Z,-3.30
2022-12-18T19:02:16.526Z,-3.30
2022-12-18T19:04:46.753Z,-3.30
2022-12-18T19:07:22.546Z,-3.30
2022-12-18T19:10:04.825Z,-3.40
2022-12-18T19:12:51.503Z,-3.40
2022-12-18T19:15:21.682Z,-3.30
2022-12-18T19:17:49.843Z,-3.30
2022-12-18T19:20:18.581Z,-3.30
2022-12-18T19:22:50.718Z,-3.30
2022-12-18T19:25:37.582Z,-3.20
2022-12-18T19:28:12.052Z,-3.20
2022-12-18T19:30:58.562Z,-3.20
2022-12-18T19:33:44.618Z,-3.20
2022-12-18T19:36:15.778Z,-3.20
2022-12-18T19:38:45.459Z,-3.20
2022-12-18T19:41:15.019Z,-3.20
2022-12-18T19:43:43.309Z,-3.20
2022-12-18T19:46:15.670Z,-3.20
2022-12-18T19:48:45.276Z,-3.20
2022-12-18T19:51:16.750Z,-3.20
2022-12-18T19:53:45.034Z,-3.10
2022-12-18T19:56:16.004Z,-3.10
2022-12-18T19:58:45.129Z,-3.10
2022-12-18T20:01:16.879Z,-3.30
2022-12-18T20:03:51.596Z,-3.30
2022-12-18T20:06:26.434Z,-3.20
2022-12-18T20:09:00.250Z,-3.10
2022-12-18T20:11:29.576Z,-3.00
2022-12-18T20:13:57.928Z,-3.00
2022-12-18T20:16:27.547Z,-3.00
2022-12-18T20:18:55.749Z,-2.90
2022-12-18T20:21:25.229Z,-2.90
2022-12-18T20:23:54.879Z,-2.90
2022-12-18T20:26:23.284Z,-2.90
2022-12-18T20:28:51.654Z,-2.80
2022-12-18T20:31:19.941Z,-2.80
2022-12-18T20:33:51.035Z,-2.90
2022-12-18T20:36:23.604Z,-3.00
2022-12-18T20:38:58.191Z,-2.90
2022-12-18T20:41:36.426Z,-2.90
2022-12-18T20:44:21.737Z,-2.90
2022-12-18T20:46:54.936Z,-3.00
2022-12-18T20:49:25.852Z,-2.90
2022-12-18T20:51:56.462Z,-2.80
2022-12-18T20:54:26.707Z,-2.80
2022-12-18T20:56:55.224Z,-2.70
2022-12-18T20:59:25.679Z,-2.70
2022-12-18T21:01:54.794Z,-2.60
2022-12-18T21:04:25.700Z,-2.60
2022-12-18T21:06:59.274Z,-2.60
2022-12-18T21:09:35.923Z,-2.60
2022-12-18T21:12:25.611Z,-2.50
2022-12-18T21:14:54.080Z,-2.50
2022-12-18T21:17:22.332Z,-2.50
2022-12-18T21:19:51.866Z,-2.50
2022-12-18T21:22:20.708Z,-2.40
2022-12-18T21:24:49.343Z,-2.40
2022-12-18T21:27:18.041Z,-2.40
2022-12-18T21:29:47.217Z,-2.30
2022-12-18T21:32:15.867Z,-2.30
2022-12-18T21:34:48.070Z,-2.30
2022-12-18T21:37:18.207Z,-2.30
2022-12-18T21:39:48.425Z,-2.30
2022-12-18T21:42:33.924Z,-2.30
2022-12-18T21:45:02.061Z,-2.30
2022-12-18T21:47:30.423Z,-2.30
2022-12-18T21:49:58.657Z,-2.20
2022-12-18T21:52:32.372Z,-2.20
2022-12-18T21:55:09.372Z,-2.20
2022-12-18T21:57:39.197Z,-2.20
2022-12-18T22:00:09.219Z,-2.20
2022-12-18T22:02:39.737Z,-2.10
2022-12-18T22:05:08.812Z,-2.10
2022-12-18T22:07:38.385Z,-2.00
2022-12-18T22:10:07.324Z,-2.00
2022-12-18T22:12:43.742Z,-2.00
2022-12-18T22:15:21.109Z,-2.00
2022-12-18T22:17:50.321Z,-2.00
2022-12-18T22:20:19.954Z,-1.90
2022-12-18T22:22:51.763Z,-1.90
2022-12-18T22:25:20.005Z,-1.90
2022-12-18T22:28:08.097Z,-1.90
2022-12-18T22:30:35.395Z,-1.90
2022-12-18T22:33:03.917Z,-1.90
2022-12-18T22:35:32.187Z,-1.80
2022-12-18T22:38:01.710Z,-1.80
2022-12-18T22:40:30.309Z,-1.70
2022-12-18T22:42:58.620Z,-1.70
2022-12-18T22:45:27.906Z,-1.70
2022-12-18T22:47:56.119Z,-1.70
2022-12-18T22:50:24.326Z,-1.70
2022-12-18T22:52:52.402Z,-1.70
2022-12-18T22:55:21.954Z,-1.70
2022-12-18T22:57:50.909Z,-1.70
2022-12-18T23:00:24.140Z,-1.70
2022-12-18T23:02:59.391Z,-1.80
2022-12-18T23:05:29.008Z,-1.70
2022-12-18T23:07:57.083Z,-1.70
2022-12-18T23:10:26.803Z,-1.70
2022-12-18T23:12:54.850Z,-1.60
2022-12-18T23:15:27.693Z,-1.60
2022-12-18T23:17:57.691Z,-1.60
2022-12-18T23:20:25.974Z,-1.70
2022-12-18T23:22:54.327Z,-1.60
2022-12-18T23:25:22.413Z,-1.60
2022-12-18T23:27:51.949Z,-1.60
2022-12-18T23:30:20.087Z,-1.60
2022-12-18T23:32:48.340Z,-1.60
2022-12-18T23:35:16.606Z,-1.50
2022-12-18T23:38:00.954Z,-1.50
2022-12-18T23:40:30.220Z,-1.50
2022-12-18T23:43:00.364Z,-1.50
2022-12-18T23:45:28.620Z,-1.60
2022-12-18T23:47:56.689Z,-1.60
2022-12-18T23:50:29.477Z,-1.70
2022-12-18T23:53:04.700Z,-1.70
2022-12-18T23:55:33.577Z,-1.60
2022-12-18T23:58:03.021Z,-1.60
